PILOTS ONLINE: 311    ATC ONLINE: 82

KHYA

Barnstable Municipal Boardman Polando Field

Location

IATA HYA
City Hyannis
Country  United States
Latitude 41° 40' 9" N
Longitude 70° 16' 49" W
Elevation 54 ft
Type Medium Airport

Map

Weather

METAR
2014/08/22 00:56
KHYA 220056Z 00000KT 10SM CLR 18/15 A3006 RMK AO2 SLP180 T01780150
TAF
2014/08/21 20:45
TAF 
      AMD KHYA 211941Z 2120/2218 VRB06KT P6SM SCT020 BKN040 
     FM220200 VRB03KT P6SM BKN090

Runways

06/24 5425 ft / 150 ft
15/33 5252 ft / 150 ft

Outbound flights

Callsign Flying to Pilot ATD/STD ETA Aircraft

Inbound flights

Callsign Flying from Pilot ATD ETA Aircraft